Nissan Maru — JG5485 — position and weather

sailwx.info

Track history (hours):
 
Tides and Currents Weather Stations Pressure Air Temp Water Temp Dewpoint Dewpoint Depression Visibility Wind Speed Wind Dir Waves Ship Positions

Nissan Maru

Last reported at 2015-May-26 03:32 UTC. Time now 2015-May-26 03:37 UTC.
Position N 35°24' E 139°45'.

Length 108 m; draft 7.2 m.

Type: Cargo ship. MMSI: 431400593.

Date/timePositionNaut miles runAvg speedWind from/ knotsBaromVisibWave heightAir tempDewpointWater temp
2015-May-26 03:32N 35°24' E 139°45'0 0.0
2015-May-26 02:29N 35°24' E 139°45'0 0.0
2015-May-26 01:32N 35°24' E 139°45'0 0.0
2015-May-26 00:29N 35°24' E 139°45'0 0.0
2015-May-25 23:32N 35°24' E 139°45'0 0.0
2015-May-25 22:29N 35°24' E 139°45'0 0.0
2015-May-25 21:32N 35°24' E 139°45'0 0.0
2015-May-25 20:32N 35°24' E 139°45'0 0.0
2015-May-25 19:32N 35°24' E 139°45'0 0.0
2015-May-25 18:32N 35°24' E 139°45'0 0.0
2015-May-25 17:32N 35°24' E 139°45'0 0.0
2015-May-25 16:32N 35°24' E 139°45'0 0.0
2015-May-25 15:32N 35°24' E 139°45'0 0.0
2015-May-25 14:32N 35°24' E 139°45'0 0.0
2015-May-25 13:32N 35°24' E 139°45'0 0.0
2015-May-25 12:32N 35°24' E 139°45'0 0.0
2015-May-25 11:32N 35°24' E 139°45'0 0.1
2015-May-25 10:32N 35°24' E 139°45'0 0.0
2015-May-25 09:32N 35°24' E 139°45'0 0.0
2015-May-25 08:32N 35°24' E 139°45'0 0.0
2015-May-25 07:32N 35°24' E 139°45'0 0.0
2015-May-25 06:32N 35°24' E 139°45'0 0.0
2015-May-25 05:29N 35°24' E 139°45'0 0.0
2015-May-25 04:32N 35°24' E 139°45'0 0.0
2015-May-25 03:32N 35°24' E 139°45'0 0.0
2015-May-25 02:32N 35°24' E 139°45'0 0.0
2015-May-25 01:32N 35°24' E 139°45'10 9.9
2015-May-25 00:33N 35°31' E 139°54'1111.2
2015-May-24 23:33N 35°35' E 140°07'0 0.3
2015-May-24 22:30N 35°34' E 140°07'0 0.0
2015-May-24 21:24N 35°34' E 140°07'0 0.0
2015-May-24 20:30N 35°34' E 140°07'0 0.0
2015-May-24 19:30N 35°34' E 140°07'0 0.0
2015-May-24 18:06N 35°34' E 140°07'0 0.0
2015-May-24 17:24N 35°34' E 140°07'0 0.0
2015-May-24 16:12N 35°34' E 140°07'0 0.0
2015-May-24 15:30N 35°34' E 140°07'0 0.0
2015-May-24 14:24N 35°34' E 140°07'0 0.0
2015-May-24 13:30N 35°34' E 140°07'0 0.0
2015-May-24 12:24N 35°34' E 140°07'0 0.0
2015-May-24 11:18N 35°34' E 140°07'0 0.0
2015-May-24 10:24N 35°34' E 140°07'0 0.0
2015-May-24 09:30N 35°34' E 140°07'0 0.0
2015-May-24 08:30N 35°34' E 140°07'0 0.0
2015-May-24 07:30N 35°34' E 140°07'0 0.0
2015-May-24 06:18N 35°34' E 140°07'0 0.0
2015-May-24 05:24N 35°34' E 140°07'0 0.0
2015-May-24 04:24N 35°34' E 140°07'0 0.0
2015-May-24 03:30N 35°34' E 140°07'0 0.0
2015-May-24 02:33N 35°34' E 140°07'0 0.0
2015-May-24 01:30N 35°34' E 140°07'0 0.0
2015-May-24 00:30N 35°34' E 140°07'0 0.0
2015-May-23 23:24N 35°34' E 140°07'0 0.0
2015-May-23 22:24N 35°34' E 140°07'0 0.0
2015-May-23 21:12N 35°34' E 140°07'0 0.0
2015-May-23 20:12N 35°34' E 140°07'0 0.0
2015-May-23 19:30N 35°34' E 140°07'0 0.0
2015-May-23 18:33N 35°34' E 140°07'0 0.0
2015-May-23 17:33N 35°34' E 140°07'0 0.0
2015-May-23 16:21N 35°34' E 140°07'0 0.0
2015-May-23 15:27N 35°34' E 140°07'0 0.0
2015-May-23 14:33N 35°34' E 140°07'0 0.0
2015-May-23 13:27N 35°34' E 140°07'0 0.0
2015-May-23 12:33N 35°34' E 140°07'0 0.0
2015-May-23 11:30N 35°34' E 140°07'0 0.0
2015-May-23 10:21N 35°34' E 140°07'0 0.0
2015-May-23 09:27N 35°34' E 140°07'0 0.0
2015-May-23 08:33N 35°34' E 140°07'0 0.0
2015-May-23 07:33N 35°34' E 140°07'0 0.0
2015-May-23 06:33N 35°34' E 140°07'0 0.0
2015-May-23 05:33N 35°34' E 140°07'0 0.4
2015-May-23 04:33N 35°35' E 140°07'4 4.1
2015-May-23 03:33N 35°34' E 140°02'0 0.0
2015-May-23 02:11N 35°34' E 140°02'0 0.0
2015-May-23 01:29N 35°34' E 140°02'0 0.0
2015-May-23 00:29N 35°34' E 140°02'0 0.0
2015-May-22 23:29N 35°34' E 140°02'6 6.8
2015-May-22 22:33N 35°30' E 139°55'1212.1
2015-May-22 21:33N 35°22' E 139°45'1211.6
2015-May-22 20:33N 35°10' E 139°46'  
2015-May-16 10:33N 34°05' E 134°49'  
Track history (hours):
 
Tides and Currents Weather Stations Pressure Air Temp Water Temp Dewpoint Dewpoint Depression Visibility Wind Speed Wind Dir Waves Ship Positions

Nissan Maru

Last reported at 2015-May-26 03:32 UTC. Time now 2015-May-26 03:37 UTC.
Position N 35°24' E 139°45'.

Length 108 m; draft 7.2 m.

Type: Cargo ship. MMSI: 431400593.

Date/timePositionNaut miles runAvg speedWind from/ knotsBaromVisibWave heightAir tempDewpointWater temp
2015-May-26 03:32N 35°24' E 139°45'0 0.0
2015-May-26 02:29N 35°24' E 139°45'0 0.0
2015-May-26 01:32N 35°24' E 139°45'0 0.0
2015-May-26 00:29N 35°24' E 139°45'0 0.0
2015-May-25 23:32N 35°24' E 139°45'0 0.0
2015-May-25 22:29N 35°24' E 139°45'0 0.0
2015-May-25 21:32N 35°24' E 139°45'0 0.0
2015-May-25 20:32N 35°24' E 139°45'0 0.0
2015-May-25 19:32N 35°24' E 139°45'0 0.0
2015-May-25 18:32N 35°24' E 139°45'0 0.0
2015-May-25 17:32N 35°24' E 139°45'0 0.0
2015-May-25 16:32N 35°24' E 139°45'0 0.0
2015-May-25 15:32N 35°24' E 139°45'0 0.0
2015-May-25 14:32N 35°24' E 139°45'0 0.0
2015-May-25 13:32N 35°24' E 139°45'0 0.0
2015-May-25 12:32N 35°24' E 139°45'0 0.0
2015-May-25 11:32N 35°24' E 139°45'0 0.1
2015-May-25 10:32N 35°24' E 139°45'0 0.0
2015-May-25 09:32N 35°24' E 139°45'0 0.0
2015-May-25 08:32N 35°24' E 139°45'0 0.0
2015-May-25 07:32N 35°24' E 139°45'0 0.0
2015-May-25 06:32N 35°24' E 139°45'0 0.0
2015-May-25 05:29N 35°24' E 139°45'0 0.0
2015-May-25 04:32N 35°24' E 139°45'0 0.0
2015-May-25 03:32N 35°24' E 139°45'0 0.0
2015-May-25 02:32N 35°24' E 139°45'0 0.0
2015-May-25 01:32N 35°24' E 139°45'10 9.9
2015-May-25 00:33N 35°31' E 139°54'1111.2
2015-May-24 23:33N 35°35' E 140°07'0 0.3
2015-May-24 22:30N 35°34' E 140°07'0 0.0
2015-May-24 21:24N 35°34' E 140°07'0 0.0
2015-May-24 20:30N 35°34' E 140°07'0 0.0
2015-May-24 19:30N 35°34' E 140°07'0 0.0
2015-May-24 18:06N 35°34' E 140°07'0 0.0
2015-May-24 17:24N 35°34' E 140°07'0 0.0
2015-May-24 16:12N 35°34' E 140°07'0 0.0
2015-May-24 15:30N 35°34' E 140°07'0 0.0
2015-May-24 14:24N 35°34' E 140°07'0 0.0
2015-May-24 13:30N 35°34' E 140°07'0 0.0
2015-May-24 12:24N 35°34' E 140°07'0 0.0
2015-May-24 11:18N 35°34' E 140°07'0 0.0
2015-May-24 10:24N 35°34' E 140°07'0 0.0
2015-May-24 09:30N 35°34' E 140°07'0 0.0
2015-May-24 08:30N 35°34' E 140°07'0 0.0
2015-May-24 07:30N 35°34' E 140°07'0 0.0
2015-May-24 06:18N 35°34' E 140°07'0 0.0
2015-May-24 05:24N 35°34' E 140°07'0 0.0
2015-May-24 04:24N 35°34' E 140°07'0 0.0
2015-May-24 03:30N 35°34' E 140°07'0 0.0
2015-May-24 02:33N 35°34' E 140°07'0 0.0
2015-May-24 01:30N 35°34' E 140°07'0 0.0
2015-May-24 00:30N 35°34' E 140°07'0 0.0
2015-May-23 23:24N 35°34' E 140°07'0 0.0
2015-May-23 22:24N 35°34' E 140°07'0 0.0
2015-May-23 21:12N 35°34' E 140°07'0 0.0
2015-May-23 20:12N 35°34' E 140°07'0 0.0
2015-May-23 19:30N 35°34' E 140°07'0 0.0
2015-May-23 18:33N 35°34' E 140°07'0 0.0
2015-May-23 17:33N 35°34' E 140°07'0 0.0
2015-May-23 16:21N 35°34' E 140°07'0 0.0
2015-May-23 15:27N 35°34' E 140°07'0 0.0
2015-May-23 14:33N 35°34' E 140°07'0 0.0
2015-May-23 13:27N 35°34' E 140°07'0 0.0
2015-May-23 12:33N 35°34' E 140°07'0 0.0
2015-May-23 11:30N 35°34' E 140°07'0 0.0
2015-May-23 10:21N 35°34' E 140°07'0 0.0
2015-May-23 09:27N 35°34' E 140°07'0 0.0
2015-May-23 08:33N 35°34' E 140°07'0 0.0
2015-May-23 07:33N 35°34' E 140°07'0 0.0
2015-May-23 06:33N 35°34' E 140°07'0 0.0
2015-May-23 05:33N 35°34' E 140°07'0 0.4
2015-May-23 04:33N 35°35' E 140°07'4 4.1
2015-May-23 03:33N 35°34' E 140°02'0 0.0
2015-May-23 02:11N 35°34' E 140°02'0 0.0
2015-May-23 01:29N 35°34' E 140°02'0 0.0
2015-May-23 00:29N 35°34' E 140°02'0 0.0
2015-May-22 23:29N 35°34' E 140°02'6 6.8
2015-May-22 22:33N 35°30' E 139°55'1212.1
2015-May-22 21:33N 35°22' E 139°45'1211.6
2015-May-22 20:33N 35°10' E 139°46'  
2015-May-16 10:33N 34°05' E 134°49'  

Dump ship's entire track history